sensor_id;sensor_type;location;lat;lon;timestamp;temperature;humidity
3727;DHT22;1879;45.876;12.300;2023-09-07T00:02:00;21.80;96.50
3727;DHT22;1879;45.876;12.300;2023-09-07T00:04:27;21.80;96.70
3727;DHT22;1879;45.876;12.300;2023-09-07T00:06:54;21.70;96.90
3727;DHT22;1879;45.876;12.300;2023-09-07T00:09:21;21.60;97.10
3727;DHT22;1879;45.876;12.300;2023-09-07T00:11:49;21.60;97.50
3727;DHT22;1879;45.876;12.300;2023-09-07T00:14:16;21.60;98.00
3727;DHT22;1879;45.876;12.300;2023-09-07T00:16:43;21.50;98.60
3727;DHT22;1879;45.876;12.300;2023-09-07T00:19:11;21.40;99.10
3727;DHT22;1879;45.876;12.300;2023-09-07T00:21:38;21.30;99.50
3727;DHT22;1879;45.876;12.300;2023-09-07T00:24:05;21.30;99.70
3727;DHT22;1879;45.876;12.300;2023-09-07T00:26:33;21.20;99.90
3727;DHT22;1879;45.876;12.300;2023-09-07T00:29:00;21.20;99.90
3727;DHT22;1879;45.876;12.300;2023-09-07T00:31:27;21.20;99.90
3727;DHT22;1879;45.876;12.300;2023-09-07T00:33:54;21.20;99.90
3727;DHT22;1879;45.876;12.300;2023-09-07T00:36:22;21.20;99.90
3727;DHT22;1879;45.876;12.300;2023-09-07T00:38:49;21.30;99.90
3727;DHT22;1879;45.876;12.300;2023-09-07T00:41:16;21.20;99.90
3727;DHT22;1879;45.876;12.300;2023-09-07T00:43:43;21.10;99.90
3727;DHT22;1879;45.876;12.300;2023-09-07T00:46:13;21.20;99.90
3727;DHT22;1879;45.876;12.300;2023-09-07T00:48:40;21.20;99.90
3727;DHT22;1879;45.876;12.300;2023-09-07T00:51:07;21.20;99.90
3727;DHT22;1879;45.876;12.300;2023-09-07T00:53:36;21.10;99.90
3727;DHT22;1879;45.876;12.300;2023-09-07T00:56:03;21.20;99.90
3727;DHT22;1879;45.876;12.300;2023-09-07T00:58:31;21.20;99.90
3727;DHT22;1879;45.876;12.300;2023-09-07T01:00:59;21.20;99.90
3727;DHT22;1879;45.876;12.300;2023-09-07T01:03:26;21.10;99.90
3727;DHT22;1879;45.876;12.300;2023-09-07T01:06:03;21.10;99.90
3727;DHT22;1879;45.876;12.300;2023-09-07T01:08:35;21.20;99.90
3727;DHT22;1879;45.876;12.300;2023-09-07T01:11:12;21.20;99.90
3727;DHT22;1879;45.876;12.300;2023-09-07T01:13:39;21.20;99.90
3727;DHT22;1879;45.876;12.300;2023-09-07T01:16:07;21.20;99.90
3727;DHT22;1879;45.876;12.300;2023-09-07T01:18:36;21.10;99.90
3727;DHT22;1879;45.876;12.300;2023-09-07T01:21:05;21.10;99.90
3727;DHT22;1879;45.876;12.300;2023-09-07T01:23:36;21.00;99.90
3727;DHT22;1879;45.876;12.300;2023-09-07T01:26:05;21.00;99.90
3727;DHT22;1879;45.876;12.300;2023-09-07T01:28:32;20.90;99.90
3727;DHT22;1879;45.876;12.300;2023-09-07T01:30:59;20.90;99.90
3727;DHT22;1879;45.876;12.300;2023-09-07T01:33:26;20.80;99.90
3727;DHT22;1879;45.876;12.300;2023-09-07T01:35:54;20.90;99.90
3727;DHT22;1879;45.876;12.300;2023-09-07T01:38:21;20.80;99.90
3727;DHT22;1879;45.876;12.300;2023-09-07T01:40:49;20.80;99.90
3727;DHT22;1879;45.876;12.300;2023-09-07T01:43:16;20.90;99.90
3727;DHT22;1879;45.876;12.300;2023-09-07T01:45:43;20.90;99.90
3727;DHT22;1879;45.876;12.300;2023-09-07T01:48:10;21.00;99.90
3727;DHT22;1879;45.876;12.300;2023-09-07T01:50:37;21.00;99.90
3727;DHT22;1879;45.876;12.300;2023-09-07T01:53:04;21.00;99.90
3727;DHT22;1879;45.876;12.300;2023-09-07T01:55:31;21.00;99.90
3727;DHT22;1879;45.876;12.300;2023-09-07T01:58:00;20.90;99.90
3727;DHT22;1879;45.876;12.300;2023-09-07T02:00:27;20.90;99.90
3727;DHT22;1879;45.876;12.300;2023-09-07T02:02:54;20.90;99.90
3727;DHT22;1879;45.876;12.300;2023-09-07T02:05:21;20.90;99.90
3727;DHT22;1879;45.876;12.300;2023-09-07T02:07:48;21.00;99.90
3727;DHT22;1879;45.876;12.300;2023-09-07T02:10:16;20.90;99.90
3727;DHT22;1879;45.876;12.300;2023-09-07T02:12:45;20.90;99.90
3727;DHT22;1879;45.876;12.300;2023-09-07T02:15:13;20.80;99.90
3727;DHT22;1879;45.876;12.300;2023-09-07T02:17:40;20.70;99.90
3727;DHT22;1879;45.876;12.300;2023-09-07T02:20:11;20.80;99.90
3727;DHT22;1879;45.876;12.300;2023-09-07T02:22:38;20.80;99.90
3727;DHT22;1879;45.876;12.300;2023-09-07T02:25:06;20.80;99.90
3727;DHT22;1879;45.876;12.300;2023-09-07T02:27:34;20.90;99.90
3727;DHT22;1879;45.876;12.300;2023-09-07T02:30:01;20.90;99.90
3727;DHT22;1879;45.876;12.300;2023-09-07T02:32:31;20.90;99.90
3727;DHT22;1879;45.876;12.300;2023-09-07T02:34:58;20.80;99.90
3727;DHT22;1879;45.876;12.300;2023-09-07T02:37:25;20.80;99.90
3727;DHT22;1879;45.876;12.300;2023-09-07T02:39:52;20.80;99.90
3727;DHT22;1879;45.876;12.300;2023-09-07T02:42:19;20.70;99.90
3727;DHT22;1879;45.876;12.300;2023-09-07T02:44:46;20.60;99.90
3727;DHT22;1879;45.876;12.300;2023-09-07T02:47:13;20.60;99.90
3727;DHT22;1879;45.876;12.300;2023-09-07T02:49:41;20.50;99.90
3727;DHT22;1879;45.876;12.300;2023-09-07T02:52:08;20.40;99.90
3727;DHT22;1879;45.876;12.300;2023-09-07T02:54:35;20.30;99.90
3727;DHT22;1879;45.876;12.300;2023-09-07T02:57:02;20.20;99.90
3727;DHT22;1879;45.876;12.300;2023-09-07T02:59:30;20.20;99.90
3727;DHT22;1879;45.876;12.300;2023-09-07T03:01:59;20.20;99.90
3727;DHT22;1879;45.876;12.300;2023-09-07T03:04:26;20.40;99.90
3727;DHT22;1879;45.876;12.300;2023-09-07T03:06:55;20.50;99.90
3727;DHT22;1879;45.876;12.300;2023-09-07T03:09:21;20.60;99.90
3727;DHT22;1879;45.876;12.300;2023-09-07T03:11:48;20.70;99.90
3727;DHT22;1879;45.876;12.300;2023-09-07T03:14:15;20.70;99.90
3727;DHT22;1879;45.876;12.300;2023-09-07T03:16:42;20.80;99.90
3727;DHT22;1879;45.876;12.300;2023-09-07T03:19:09;20.80;99.90
3727;DHT22;1879;45.876;12.300;2023-09-07T03:21:36;20.80;99.90
3727;DHT22;1879;45.876;12.300;2023-09-07T03:24:05;20.70;99.90
3727;DHT22;1879;45.876;12.300;2023-09-07T03:26:32;20.60;99.90
3727;DHT22;1879;45.876;12.300;2023-09-07T03:29:00;20.60;99.90
3727;DHT22;1879;45.876;12.300;2023-09-07T03:31:27;20.60;99.90
3727;DHT22;1879;45.876;12.300;2023-09-07T03:33:54;20.70;99.90
3727;DHT22;1879;45.876;12.300;2023-09-07T03:36:21;20.80;99.90
3727;DHT22;1879;45.876;12.300;2023-09-07T03:38:49;20.90;99.90
3727;DHT22;1879;45.876;12.300;2023-09-07T03:41:17;21.00;99.90
3727;DHT22;1879;45.876;12.300;2023-09-07T03:43:44;21.10;99.90
3727;DHT22;1879;45.876;12.300;2023-09-07T03:46:11;21.10;99.90
3727;DHT22;1879;45.876;12.300;2023-09-07T03:48:38;21.10;99.90
3727;DHT22;1879;45.876;12.300;2023-09-07T03:51:06;21.10;99.90
3727;DHT22;1879;45.876;12.300;2023-09-07T03:53:33;21.20;99.90
3727;DHT22;1879;45.876;12.300;2023-09-07T03:56:02;21.20;99.90
3727;DHT22;1879;45.876;12.300;2023-09-07T03:58:32;21.20;99.90
3727;DHT22;1879;45.876;12.300;2023-09-07T04:00:59;21.30;99.90
3727;DHT22;1879;45.876;12.300;2023-09-07T04:03:26;21.30;99.90
3727;DHT22;1879;45.876;12.300;2023-09-07T04:05:53;21.30;99.90
3727;DHT22;1879;45.876;12.300;2023-09-07T04:08:21;21.40;99.90
3727;DHT22;1879;45.876;12.300;2023-09-07T04:10:48;21.40;99.90
3727;DHT22;1879;45.876;12.300;2023-09-07T04:13:15;21.40;99.70
3727;DHT22;1879;45.876;12.300;2023-09-07T04:15:44;21.50;99.70
3727;DHT22;1879;45.876;12.300;2023-09-07T04:18:12;21.50;99.50
3727;DHT22;1879;45.876;12.300;2023-09-07T04:20:41;21.50;99.70
3727;DHT22;1879;45.876;12.300;2023-09-07T04:23:08;21.30;99.90
3727;DHT22;1879;45.876;12.300;2023-09-07T04:25:35;21.10;99.90
3727;DHT22;1879;45.876;12.300;2023-09-07T04:28:02;21.00;99.90
3727;DHT22;1879;45.876;12.300;2023-09-07T04:30:29;20.80;99.90
3727;DHT22;1879;45.876;12.300;2023-09-07T04:32:57;20.70;99.90
3727;DHT22;1879;45.876;12.300;2023-09-07T04:35:28;20.60;99.90
3727;DHT22;1879;45.876;12.300;2023-09-07T04:37:55;20.50;99.90
3727;DHT22;1879;45.876;12.300;2023-09-07T04:40:22;20.40;99.90
3727;DHT22;1879;45.876;12.300;2023-09-07T04:42:49;20.30;99.90
3727;DHT22;1879;45.876;12.300;2023-09-07T04:45:16;20.20;99.90
3727;DHT22;1879;45.876;12.300;2023-09-07T04:47:46;20.10;99.90
3727;DHT22;1879;45.876;12.300;2023-09-07T04:50:15;20.00;99.90
3727;DHT22;1879;45.876;12.300;2023-09-07T04:52:42;20.00;99.90
3727;DHT22;1879;45.876;12.300;2023-09-07T04:55:09;20.00;99.90
3727;DHT22;1879;45.876;12.300;2023-09-07T04:57:36;19.90;99.90
3727;DHT22;1879;45.876;12.300;2023-09-07T05:00:05;19.90;99.90
3727;DHT22;1879;45.876;12.300;2023-09-07T05:02:33;20.00;99.90
3727;DHT22;1879;45.876;12.300;2023-09-07T05:05:04;20.10;99.90
3727;DHT22;1879;45.876;12.300;2023-09-07T05:07:33;20.20;99.90
3727;DHT22;1879;45.876;12.300;2023-09-07T05:10:00;20.30;99.90
3727;DHT22;1879;45.876;12.300;2023-09-07T05:12:27;20.50;99.90
3727;DHT22;1879;45.876;12.300;2023-09-07T05:14:54;20.60;99.90
3727;DHT22;1879;45.876;12.300;2023-09-07T05:17:21;20.70;99.90
3727;DHT22;1879;45.876;12.300;2023-09-07T05:19:48;20.80;99.90
3727;DHT22;1879;45.876;12.300;2023-09-07T05:22:15;20.90;99.90
3727;DHT22;1879;45.876;12.300;2023-09-07T05:24:44;21.00;99.90
3727;DHT22;1879;45.876;12.300;2023-09-07T05:27:13;21.10;99.90
3727;DHT22;1879;45.876;12.300;2023-09-07T05:29:40;21.10;99.90
3727;DHT22;1879;45.876;12.300;2023-09-07T05:32:09;21.20;99.90
3727;DHT22;1879;45.876;12.300;2023-09-07T05:34:36;21.20;99.90
3727;DHT22;1879;45.876;12.300;2023-09-07T05:37:04;21.40;99.90
3727;DHT22;1879;45.876;12.300;2023-09-07T05:39:31;21.50;99.90
3727;DHT22;1879;45.876;12.300;2023-09-07T05:41:59;21.60;99.90
3727;DHT22;1879;45.876;12.300;2023-09-07T05:44:26;21.70;99.90
3727;DHT22;1879;45.876;12.300;2023-09-07T05:46:53;21.80;99.90
3727;DHT22;1879;45.876;12.300;2023-09-07T05:49:20;21.80;99.90
3727;DHT22;1879;45.876;12.300;2023-09-07T05:51:47;22.00;99.90
3727;DHT22;1879;45.876;12.300;2023-09-07T05:54:14;22.00;99.80
3727;DHT22;1879;45.876;12.300;2023-09-07T05:56:41;22.00;99.90
3727;DHT22;1879;45.876;12.300;2023-09-07T05:59:09;22.10;99.90
3727;DHT22;1879;45.876;12.300;2023-09-07T06:01:36;22.10;99.90
3727;DHT22;1879;45.876;12.300;2023-09-07T06:04:04;22.30;99.90
3727;DHT22;1879;45.876;12.300;2023-09-07T06:06:31;22.40;99.80
3727;DHT22;1879;45.876;12.300;2023-09-07T06:08:58;22.50;99.20
3727;DHT22;1879;45.876;12.300;2023-09-07T06:11:26;22.50;99.00
3727;DHT22;1879;45.876;12.300;2023-09-07T06:13:53;22.50;99.00
3727;DHT22;1879;45.876;12.300;2023-09-07T06:16:21;22.50;98.90
3727;DHT22;1879;45.876;12.300;2023-09-07T06:18:48;22.50;98.90
3727;DHT22;1879;45.876;12.300;2023-09-07T06:21:15;22.50;98.80
3727;DHT22;1879;45.876;12.300;2023-09-07T06:23:43;22.60;98.80
3727;DHT22;1879;45.876;12.300;2023-09-07T06:26:10;22.70;98.90
3727;DHT22;1879;45.876;12.300;2023-09-07T06:28:37;22.80;99.00
3727;DHT22;1879;45.876;12.300;2023-09-07T06:31:04;23.00;98.60
3727;DHT22;1879;45.876;12.300;2023-09-07T06:33:32;23.10;98.10
3727;DHT22;1879;45.876;12.300;2023-09-07T06:36:00;23.10;97.80
3727;DHT22;1879;45.876;12.300;2023-09-07T06:38:29;23.10;97.60
3727;DHT22;1879;45.876;12.300;2023-09-07T06:40:57;23.10;97.70
3727;DHT22;1879;45.876;12.300;2023-09-07T06:43:24;23.20;97.50
3727;DHT22;1879;45.876;12.300;2023-09-07T06:45:51;23.10;97.60
3727;DHT22;1879;45.876;12.300;2023-09-07T06:48:18;23.20;97.70
3727;DHT22;1879;45.876;12.300;2023-09-07T06:50:46;23.20;97.80
3727;DHT22;1879;45.876;12.300;2023-09-07T06:53:14;23.30;98.00
3727;DHT22;1879;45.876;12.300;2023-09-07T06:55:41;23.30;97.90
3727;DHT22;1879;45.876;12.300;2023-09-07T06:58:08;23.40;97.90
3727;DHT22;1879;45.876;12.300;2023-09-07T07:00:35;23.40;97.90
3727;DHT22;1879;45.876;12.300;2023-09-07T07:03:02;23.60;97.90
3727;DHT22;1879;45.876;12.300;2023-09-07T07:05:29;23.70;97.80
3727;DHT22;1879;45.876;12.300;2023-09-07T07:08:00;23.80;97.50
3727;DHT22;1879;45.876;12.300;2023-09-07T07:10:28;23.80;97.20
3727;DHT22;1879;45.876;12.300;2023-09-07T07:12:55;23.90;97.30
3727;DHT22;1879;45.876;12.300;2023-09-07T07:15:22;23.90;97.50
3727;DHT22;1879;45.876;12.300;2023-09-07T07:17:49;24.00;97.30
3727;DHT22;1879;45.876;12.300;2023-09-07T07:20:16;24.00;97.40
3727;DHT22;1879;45.876;12.300;2023-09-07T07:22:42;24.00;97.40
3727;DHT22;1879;45.876;12.300;2023-09-07T07:25:11;24.00;97.40
3727;DHT22;1879;45.876;12.300;2023-09-07T07:27:38;24.00;97.60
3727;DHT22;1879;45.876;12.300;2023-09-07T07:30:06;24.00;97.50
3727;DHT22;1879;45.876;12.300;2023-09-07T07:32:33;24.00;97.30
3727;DHT22;1879;45.876;12.300;2023-09-07T07:35:00;24.10;97.30
3727;DHT22;1879;45.876;12.300;2023-09-07T07:37:27;24.20;97.30
3727;DHT22;1879;45.876;12.300;2023-09-07T07:39:54;24.30;97.20
3727;DHT22;1879;45.876;12.300;2023-09-07T07:42:22;24.50;97.10
3727;DHT22;1879;45.876;12.300;2023-09-07T07:44:49;24.70;96.90
3727;DHT22;1879;45.876;12.300;2023-09-07T07:47:16;24.80;96.80
3727;DHT22;1879;45.876;12.300;2023-09-07T07:49:46;24.90;96.50
3727;DHT22;1879;45.876;12.300;2023-09-07T07:52:13;25.00;96.30
3727;DHT22;1879;45.876;12.300;2023-09-07T07:54:40;25.00;96.10
3727;DHT22;1879;45.876;12.300;2023-09-07T07:57:07;25.00;96.00
3727;DHT22;1879;45.876;12.300;2023-09-07T07:59:35;25.00;95.60
3727;DHT22;1879;45.876;12.300;2023-09-07T08:02:03;25.00;95.30
3727;DHT22;1879;45.876;12.300;2023-09-07T08:04:31;25.10;95.40
3727;DHT22;1879;45.876;12.300;2023-09-07T08:07:00;25.20;95.80
3727;DHT22;1879;45.876;12.300;2023-09-07T08:09:29;25.30;94.60
3727;DHT22;1879;45.876;12.300;2023-09-07T08:11:56;25.40;94.10
3727;DHT22;1879;45.876;12.300;2023-09-07T08:14:24;25.50;94.00
3727;DHT22;1879;45.876;12.300;2023-09-07T08:16:53;25.50;93.50
3727;DHT22;1879;45.876;12.300;2023-09-07T08:19:20;25.50;93.50
3727;DHT22;1879;45.876;12.300;2023-09-07T08:21:48;25.60;93.30
3727;DHT22;1879;45.876;12.300;2023-09-07T08:24:15;25.60;93.30
3727;DHT22;1879;45.876;12.300;2023-09-07T08:26:42;25.60;93.30
3727;DHT22;1879;45.876;12.300;2023-09-07T08:29:09;25.70;93.00
3727;DHT22;1879;45.876;12.300;2023-09-07T08:31:36;25.70;92.90
3727;DHT22;1879;45.876;12.300;2023-09-07T08:34:07;25.70;92.30
3727;DHT22;1879;45.876;12.300;2023-09-07T08:36:35;25.80;91.90
3727;DHT22;1879;45.876;12.300;2023-09-07T08:39:03;25.80;91.70
3727;DHT22;1879;45.876;12.300;2023-09-07T08:41:36;25.90;91.50
3727;DHT22;1879;45.876;12.300;2023-09-07T08:44:07;25.90;91.10
3727;DHT22;1879;45.876;12.300;2023-09-07T08:46:35;26.00;91.00
3727;DHT22;1879;45.876;12.300;2023-09-07T08:49:04;26.00;91.00
3727;DHT22;1879;45.876;12.300;2023-09-07T08:51:31;26.00;91.10
3727;DHT22;1879;45.876;12.300;2023-09-07T08:54:00;26.10;91.00
3727;DHT22;1879;45.876;12.300;2023-09-07T08:56:29;26.10;91.00
3727;DHT22;1879;45.876;12.300;2023-09-07T08:58:56;26.20;91.00
3727;DHT22;1879;45.876;12.300;2023-09-07T09:01:23;26.20;90.90
3727;DHT22;1879;45.876;12.300;2023-09-07T09:03:50;26.20;91.00
3727;DHT22;1879;45.876;12.300;2023-09-07T09:06:20;26.30;91.00
3727;DHT22;1879;45.876;12.300;2023-09-07T09:08:49;26.30;91.00
3727;DHT22;1879;45.876;12.300;2023-09-07T09:11:17;26.40;91.00
3727;DHT22;1879;45.876;12.300;2023-09-07T09:13:44;26.40;90.80
3727;DHT22;1879;45.876;12.300;2023-09-07T09:16:12;26.50;90.60
3727;DHT22;1879;45.876;12.300;2023-09-07T09:18:47;26.60;90.50
3727;DHT22;1879;45.876;12.300;2023-09-07T09:21:15;26.60;89.00
3727;DHT22;1879;45.876;12.300;2023-09-07T09:23:44;26.60;89.20
3727;DHT22;1879;45.876;12.300;2023-09-07T09:26:11;26.70;89.10
3727;DHT22;1879;45.876;12.300;2023-09-07T09:28:39;26.80;88.80
3727;DHT22;1879;45.876;12.300;2023-09-07T09:31:06;26.80;88.50
3727;DHT22;1879;45.876;12.300;2023-09-07T09:33:38;26.80;88.10
3727;DHT22;1879;45.876;12.300;2023-09-07T09:36:06;26.90;87.70
3727;DHT22;1879;45.876;12.300;2023-09-07T09:38:33;26.90;86.80
3727;DHT22;1879;45.876;12.300;2023-09-07T09:41:03;26.90;86.20
3727;DHT22;1879;45.876;12.300;2023-09-07T09:43:31;27.00;86.40
3727;DHT22;1879;45.876;12.300;2023-09-07T09:46:00;27.10;86.80
3727;DHT22;1879;45.876;12.300;2023-09-07T09:48:27;27.20;87.20
3727;DHT22;1879;45.876;12.300;2023-09-07T09:50:55;27.30;86.40
3727;DHT22;1879;45.876;12.300;2023-09-07T09:53:24;27.30;85.50
3727;DHT22;1879;45.876;12.300;2023-09-07T09:55:54;27.30;85.70
3727;DHT22;1879;45.876;12.300;2023-09-07T09:58:22;27.40;85.00
3727;DHT22;1879;45.876;12.300;2023-09-07T10:00:53;27.50;83.70
3727;DHT22;1879;45.876;12.300;2023-09-07T10:03:24;27.50;84.10
3727;DHT22;1879;45.876;12.300;2023-09-07T10:05:52;27.50;83.70
3727;DHT22;1879;45.876;12.300;2023-09-07T10:08:21;27.60;84.30
3727;DHT22;1879;45.876;12.300;2023-09-07T10:10:52;27.60;83.20
3727;DHT22;1879;45.876;12.300;2023-09-07T10:13:31;27.70;83.00
3727;DHT22;1879;45.876;12.300;2023-09-07T10:16:03;27.70;81.30
3727;DHT22;1879;45.876;12.300;2023-09-07T10:18:33;27.90;82.70
3727;DHT22;1879;45.876;12.300;2023-09-07T10:21:01;28.00;82.30
3727;DHT22;1879;45.876;12.300;2023-09-07T10:23:36;28.10;82.30
3727;DHT22;1879;45.876;12.300;2023-09-07T10:26:04;28.20;81.10
3727;DHT22;1879;45.876;12.300;2023-09-07T10:28:33;28.40;82.00
3727;DHT22;1879;45.876;12.300;2023-09-07T10:31:02;28.40;81.40
3727;DHT22;1879;45.876;12.300;2023-09-07T10:33:30;28.50;80.80
3727;DHT22;1879;45.876;12.300;2023-09-07T10:35:57;28.50;80.50
3727;DHT22;1879;45.876;12.300;2023-09-07T10:38:24;28.60;80.50
3727;DHT22;1879;45.876;12.300;2023-09-07T10:40:55;28.60;80.20
3727;DHT22;1879;45.876;12.300;2023-09-07T10:43:24;28.70;79.80
3727;DHT22;1879;45.876;12.300;2023-09-07T10:45:53;28.70;79.60
3727;DHT22;1879;45.876;12.300;2023-09-07T10:48:21;28.70;79.40
3727;DHT22;1879;45.876;12.300;2023-09-07T10:50:48;28.70;79.10
3727;DHT22;1879;45.876;12.300;2023-09-07T10:53:24;28.80;78.70
3727;DHT22;1879;45.876;12.300;2023-09-07T10:55:53;28.80;78.70
3727;DHT22;1879;45.876;12.300;2023-09-07T10:58:26;28.90;78.30
3727;DHT22;1879;45.876;12.300;2023-09-07T11:00:55;29.10;77.90
3727;DHT22;1879;45.876;12.300;2023-09-07T11:03:22;29.20;78.10
3727;DHT22;1879;45.876;12.300;2023-09-07T11:05:50;29.30;77.30
3727;DHT22;1879;45.876;12.300;2023-09-07T11:08:18;29.30;76.70
3727;DHT22;1879;45.876;12.300;2023-09-07T11:10:45;29.40;77.40
3727;DHT22;1879;45.876;12.300;2023-09-07T11:13:12;29.60;77.30
3727;DHT22;1879;45.876;12.300;2023-09-07T11:15:39;29.80;77.20
3727;DHT22;1879;45.876;12.300;2023-09-07T11:18:10;30.00;76.70
3727;DHT22;1879;45.876;12.300;2023-09-07T11:20:37;30.30;75.70
3727;DHT22;1879;45.876;12.300;2023-09-07T11:23:05;30.50;74.50
3727;DHT22;1879;45.876;12.300;2023-09-07T11:25:36;30.80;74.10
3727;DHT22;1879;45.876;12.300;2023-09-07T11:28:04;31.10;73.50
3727;DHT22;1879;45.876;12.300;2023-09-07T11:30:31;31.40;72.20
3727;DHT22;1879;45.876;12.300;2023-09-07T11:33:02;31.70;71.30
3727;DHT22;1879;45.876;12.300;2023-09-07T11:35:30;32.10;69.80
3727;DHT22;1879;45.876;12.300;2023-09-07T11:37:59;32.40;68.50
3727;DHT22;1879;45.876;12.300;2023-09-07T11:45:23;34.80;94.90
3727;DHT22;1879;45.876;12.300;2023-09-07T11:47:50;35.30;61.90
3727;DHT22;1879;45.876;12.300;2023-09-07T11:52:48;37.20;54.20
3727;DHT22;1879;45.876;12.300;2023-09-07T11:55:15;37.60;55.70
3727;DHT22;1879;45.876;12.300;2023-09-07T11:57:42;38.20;91.10
3727;DHT22;1879;45.876;12.300;2023-09-07T12:02:38;39.50;88.40
3727;DHT22;1879;45.876;12.300;2023-09-07T12:05:06;40.40;49.90
3727;DHT22;1879;45.876;12.300;2023-09-07T12:07:34;41.70;45.90
3727;DHT22;1879;45.876;12.300;2023-09-07T12:10:03;41.70;46.20
3727;DHT22;1879;45.876;12.300;2023-09-07T12:12:30;42.40;43.60
3727;DHT22;1879;45.876;12.300;2023-09-07T12:14:57;42.80;42.10
3727;DHT22;1879;45.876;12.300;2023-09-07T12:17:26;43.20;8.80
3727;DHT22;1879;45.876;12.300;2023-09-07T12:19:52;43.70;99.90
3727;DHT22;1879;45.876;12.300;2023-09-07T12:22:19;44.00;99.90
3727;DHT22;1879;45.876;12.300;2023-09-07T12:24:46;44.20;99.90
3727;DHT22;1879;45.876;12.300;2023-09-07T12:27:15;44.40;99.90
3727;DHT22;1879;45.876;12.300;2023-09-07T12:29:42;44.60;99.90
3727;DHT22;1879;45.876;12.300;2023-09-07T12:32:09;44.90;99.90
3727;DHT22;1879;45.876;12.300;2023-09-07T12:34:37;45.00;99.90
3727;DHT22;1879;45.876;12.300;2023-09-07T12:37:04;45.50;99.90
3727;DHT22;1879;45.876;12.300;2023-09-07T12:39:31;45.90;99.90
3727;DHT22;1879;45.876;12.300;2023-09-07T12:41:58;46.20;99.90
3727;DHT22;1879;45.876;12.300;2023-09-07T12:44:27;46.00;99.90
3727;DHT22;1879;45.876;12.300;2023-09-07T12:46:54;46.00;99.90
3727;DHT22;1879;45.876;12.300;2023-09-07T12:49:21;46.10;99.90
3727;DHT22;1879;45.876;12.300;2023-09-07T12:51:48;45.90;99.90
3727;DHT22;1879;45.876;12.300;2023-09-07T12:54:15;46.00;99.90
3727;DHT22;1879;45.876;12.300;2023-09-07T12:56:43;46.60;99.90
3727;DHT22;1879;45.876;12.300;2023-09-07T12:59:10;47.20;99.90
3727;DHT22;1879;45.876;12.300;2023-09-07T13:01:38;47.30;99.90
3727;DHT22;1879;45.876;12.300;2023-09-07T13:04:06;47.60;99.90
3727;DHT22;1879;45.876;12.300;2023-09-07T13:06:33;47.50;99.90
3727;DHT22;1879;45.876;12.300;2023-09-07T13:09:00;47.30;99.90
3727;DHT22;1879;45.876;12.300;2023-09-07T13:11:27;47.60;99.90
3727;DHT22;1879;45.876;12.300;2023-09-07T13:13:54;47.60;99.90
3727;DHT22;1879;45.876;12.300;2023-09-07T13:16:21;47.60;99.90
3727;DHT22;1879;45.876;12.300;2023-09-07T13:18:49;47.50;99.90
3727;DHT22;1879;45.876;12.300;2023-09-07T13:21:16;47.40;99.90
3727;DHT22;1879;45.876;12.300;2023-09-07T13:23:43;47.50;99.90
3727;DHT22;1879;45.876;12.300;2023-09-07T13:26:12;46.90;99.90
3727;DHT22;1879;45.876;12.300;2023-09-07T13:28:39;47.10;99.90
3727;DHT22;1879;45.876;12.300;2023-09-07T13:31:06;46.90;99.90
3727;DHT22;1879;45.876;12.300;2023-09-07T13:33:33;47.20;99.90
3727;DHT22;1879;45.876;12.300;2023-09-07T13:36:02;47.10;99.90
3727;DHT22;1879;45.876;12.300;2023-09-07T13:38:30;47.50;99.90
3727;DHT22;1879;45.876;12.300;2023-09-07T13:40:58;47.20;99.90
3727;DHT22;1879;45.876;12.300;2023-09-07T13:43:25;47.00;99.90
3727;DHT22;1879;45.876;12.300;2023-09-07T13:45:52;47.20;99.90
3727;DHT22;1879;45.876;12.300;2023-09-07T13:48:19;47.30;99.90
3727;DHT22;1879;45.876;12.300;2023-09-07T13:50:46;47.10;99.90
3727;DHT22;1879;45.876;12.300;2023-09-07T13:53:15;46.70;99.90
3727;DHT22;1879;45.876;12.300;2023-09-07T13:55:42;46.70;99.90
3727;DHT22;1879;45.876;12.300;2023-09-07T13:58:11;46.60;99.90
3727;DHT22;1879;45.876;12.300;2023-09-07T14:00:38;47.00;99.90
3727;DHT22;1879;45.876;12.300;2023-09-07T14:03:05;47.10;99.90
3727;DHT22;1879;45.876;12.300;2023-09-07T14:05:32;47.10;99.90
3727;DHT22;1879;45.876;12.300;2023-09-07T14:07:59;46.90;99.90
3727;DHT22;1879;45.876;12.300;2023-09-07T14:10:28;46.90;99.90
3727;DHT22;1879;45.876;12.300;2023-09-07T14:12:55;47.10;99.90
3727;DHT22;1879;45.876;12.300;2023-09-07T14:15:22;47.20;99.90
3727;DHT22;1879;45.876;12.300;2023-09-07T14:17:49;47.20;99.90
3727;DHT22;1879;45.876;12.300;2023-09-07T14:20:16;47.30;99.90
3727;DHT22;1879;45.876;12.300;2023-09-07T14:22:43;47.30;99.90
3727;DHT22;1879;45.876;12.300;2023-09-07T14:25:10;47.60;99.90
3727;DHT22;1879;45.876;12.300;2023-09-07T14:27:38;47.80;99.90
3727;DHT22;1879;45.876;12.300;2023-09-07T14:30:06;47.80;99.90
3727;DHT22;1879;45.876;12.300;2023-09-07T14:32:33;47.80;99.90
3727;DHT22;1879;45.876;12.300;2023-09-07T14:35:00;47.80;99.90
3727;DHT22;1879;45.876;12.300;2023-09-07T14:37:27;47.60;99.90
3727;DHT22;1879;45.876;12.300;2023-09-07T14:39:55;47.60;99.90
3727;DHT22;1879;45.876;12.300;2023-09-07T14:42:23;47.30;99.90
3727;DHT22;1879;45.876;12.300;2023-09-07T14:44:52;47.20;99.90
3727;DHT22;1879;45.876;12.300;2023-09-07T14:47:20;47.00;99.90
3727;DHT22;1879;45.876;12.300;2023-09-07T14:49:51;46.70;99.90
3727;DHT22;1879;45.876;12.300;2023-09-07T14:52:18;46.40;99.90
3727;DHT22;1879;45.876;12.300;2023-09-07T14:54:47;45.90;99.90
3727;DHT22;1879;45.876;12.300;2023-09-07T14:57:14;46.00;99.90
3727;DHT22;1879;45.876;12.300;2023-09-07T14:59:41;45.90;99.90
3727;DHT22;1879;45.876;12.300;2023-09-07T15:02:10;45.40;99.90
3727;DHT22;1879;45.876;12.300;2023-09-07T15:04:38;45.50;99.90
3727;DHT22;1879;45.876;12.300;2023-09-07T15:07:05;45.30;99.90
3727;DHT22;1879;45.876;12.300;2023-09-07T15:09:32;45.40;99.90
3727;DHT22;1879;45.876;12.300;2023-09-07T15:11:59;45.40;99.90
3727;DHT22;1879;45.876;12.300;2023-09-07T15:14:26;45.40;99.90
3727;DHT22;1879;45.876;12.300;2023-09-07T15:16:53;45.50;99.90
3727;DHT22;1879;45.876;12.300;2023-09-07T15:19:21;45.30;99.90
3727;DHT22;1879;45.876;12.300;2023-09-07T15:21:49;45.10;99.90
3727;DHT22;1879;45.876;12.300;2023-09-07T15:24:18;44.90;99.90
3727;DHT22;1879;45.876;12.300;2023-09-07T15:26:45;44.90;99.90
3727;DHT22;1879;45.876;12.300;2023-09-07T15:29:12;44.50;99.90
3727;DHT22;1879;45.876;12.300;2023-09-07T15:31:40;44.40;99.90
3727;DHT22;1879;45.876;12.300;2023-09-07T15:34:07;44.50;99.90
3727;DHT22;1879;45.876;12.300;2023-09-07T15:36:35;44.50;99.90
3727;DHT22;1879;45.876;12.300;2023-09-07T15:39:04;44.40;99.90
3727;DHT22;1879;45.876;12.300;2023-09-07T15:41:31;44.20;99.90
3727;DHT22;1879;45.876;12.300;2023-09-07T15:43:58;44.00;99.90
3727;DHT22;1879;45.876;12.300;2023-09-07T15:46:25;43.80;99.90
3727;DHT22;1879;45.876;12.300;2023-09-07T15:48:53;43.50;99.90
3727;DHT22;1879;45.876;12.300;2023-09-07T15:51:20;43.30;99.90
3727;DHT22;1879;45.876;12.300;2023-09-07T15:53:48;43.10;99.90
3727;DHT22;1879;45.876;12.300;2023-09-07T15:56:15;42.50;99.90
3727;DHT22;1879;45.876;12.300;2023-09-07T15:58:43;42.10;99.90